Mazar-I-Sharif, Afghanistan

02:37 PM +0430 on مارس 28, 2017 (GMT +0430)
Mazar | | Change Station

Elev 1240 ft 36.70 °N, 67.20 °E | Updated 17 minutes ago

ابرهاى پراكنده
ابرهاى پراكنده
73 °F
Feels Like 73 °F
N
13
باد متغير باد from ENE

امروز
High -- | Low -- °F
--% Chance of Precip.
دیروز
High -- | Low -- °F
Precip. -- در
فشار 29.98 در
ديد 6.2 مايل، ميل (در برابر كيلومتر
ابری Few 6500 ft
ابرهای پراکنده 15000 ft
قطره شبنم 55 °F
رطوبت 53%
بارش باران 0.00 در
برف عمیق Not available.
5:53 AM 6:19 PM
ماه جدید, 0% visible
METAR OAMS 280950Z 06011KT 9999 FEW065 SCT150 23/13 Q1015 BLU+BLU+
فشار 29.98 در
ديد 6.2 مايل، ميل (در برابر كيلومتر
ابری Few 6500 ft
ابرهای پراکنده 15000 ft
قطره شبنم 55 °F
رطوبت 53%
بارش باران 0.00 در
برف عمیق Not available.
5:53 AM 6:19 PM
ماه جدید, 0% visible
METAR OAMS 280950Z 06011KT 9999 FEW065 SCT150 23/13 Q1015 BLU+BLU+

Get Severe Weather Alerts

Thanks for signing up!

Be on the lookout for a verification email in your inbox.

You'll start receiving the daily forecast at 8 AM.

×

10-Day Weather Forecast

No radar image for this location.
×

Almanac

ستاره شناسی

Mar. 28, 2017 Rise Set
وقت حقیقی
تاریک و روشن اجتماعی
تاریک روشن دریایی
شفق و فلق نجومی
ماه
میزان روشنایی روز
طول روز
Tomorrow will be .
, % of the Moon is Illuminated

Today's Extremes

Country Highs Country Lows

Community

WunderPhotos

Upload Photos

1,962,540 photos uploaded!

WunderBlog® & News

Nearby

تمیزی هوا

  تمیزی هوا AQ Index آلاینده
Not available.

عمق برف

Station Depth Elevation

Earthquake Activity

شهر Distance Mag. Time & Date
Minimum magnitude displayed is 2.5.

Earthquake Activity

شهر Distance Mag. Time & Date
Minimum magnitude displayed is 2.5.

Coastal Water Temperatures

منطقه درجه حرارت

Stations

Nearby Weather Stations

Station Location دما باد سرد قطره شبنم رطوبت باد Precip. Elev ارتقا دادن Type